Time;durP1;ratioP1;P1;durP2;ratioP2;P2;SDS_P1;SDS_P2;PMS_P1;PMS_P2;Temp;Humidity;BMP_temperature;BMP_pressure;BME280_temperature;BME280_humidity;BME280_pressure;Samples;Min_cycle;Max_cycle;Signal;HPM_P1;HPM_P2
2021/12/07 00:00:20;;;;;;;10.50;6.22;;;;;;;-1.13;100.00;97864.81;4213647;27;20192;-71
2021/12/07 00:02:20;;;;;;;20.73;8.65;;;;;;;-1.16;100.00;97858.09;4209204;27;20039;-71
2021/12/07 00:04:21;;;;;;;15.77;7.45;;;;;;;-1.18;100.00;97857.59;4205987;27;20048;-71
2021/12/07 00:06:22;;;;;;;16.02;8.77;;;;;;;-1.18;100.00;97854.88;4211860;27;20478;-71
2021/12/07 00:08:22;;;;;;;14.98;8.00;;;;;;;-1.19;100.00;97850.56;4208692;27;20459;-71
2021/12/07 00:10:23;;;;;;;12.15;6.75;;;;;;;-1.12;100.00;97852.81;4207784;27;20481;-71
2021/12/07 00:12:25;;;;;;;10.80;6.65;;;;;;;-1.04;100.00;97848.53;4207487;27;20040;-71
2021/12/07 00:14:32;;;;;;;13.45;7.35;;;;;;;-1.01;100.00;97850.59;4209886;27;20082;-71
2021/12/07 00:16:33;;;;;;;13.27;6.93;;;;;;;-0.89;100.00;97848.88;4211996;27;20101;-71
2021/12/07 00:18:33;;;;;;;14.25;7.45;;;;;;;-0.89;100.00;97840.72;4209471;27;20123;-71
2021/12/07 00:20:34;;;;;;;12.48;7.13;;;;;;;-0.81;100.00;97854.63;4207267;27;20032;-71
2021/12/07 00:22:35;;;;;;;14.35;7.70;;;;;;;-0.79;100.00;97838.81;4208224;27;20154;-71
2021/12/07 00:24:35;;;;;;;12.90;7.10;;;;;;;-0.71;100.00;97835.28;4209212;27;20145;-71
2021/12/07 00:26:38;;;;;;;12.95;6.78;;;;;;;-0.65;100.00;97836.72;4207642;27;20550;-71
2021/12/07 00:28:40;;;;;;;13.10;7.38;;;;;;;-0.60;99.69;97825.69;4210696;27;20036;-71
2021/12/07 00:30:41;;;;;;;11.07;7.32;;;;;;;-0.60;99.60;97826.47;4207321;27;20036;-72
2021/12/07 00:32:47;;;;;;;13.95;7.15;;;;;;;-0.54;99.13;97815.47;4207993;27;20507;-71
2021/12/07 00:36:59;;;;;;;13.13;7.35;;;;;;;-0.48;98.03;97808.75;4209500;27;20127;-71
2021/12/07 00:38:59;;;;;;;11.35;7.07;;;;;;;-0.50;98.60;97806.31;4205821;27;20476;-71
2021/12/07 00:41:01;;;;;;;11.55;7.57;;;;;;;-0.50;98.70;97806.31;4207052;27;20044;-71
2021/12/07 00:43:02;;;;;;;13.27;7.60;;;;;;;-0.54;97.94;97801.88;4208707;27;20040;-71
2021/12/07 00:45:05;;;;;;;13.50;7.65;;;;;;;-0.55;98.22;97792.94;4206520;27;20772;-71
2021/12/07 00:47:05;;;;;;;12.65;8.02;;;;;;;-0.53;98.52;97792.59;4207979;27;20211;-71
2021/12/07 00:49:06;;;;;;;13.75;7.65;;;;;;;-0.55;98.43;97775.81;4213593;27;20044;-71
2021/12/07 00:51:06;;;;;;;12.93;7.30;;;;;;;-0.58;98.26;97779.97;4211509;27;20370;-71
2021/12/07 00:53:07;;;;;;;13.20;6.80;;;;;;;-0.54;99.17;97778.22;4205421;27;20078;-71
2021/12/07 00:55:15;;;;;;;10.63;6.90;;;;;;;-0.60;98.62;97774.06;4209392;27;20032;-71
2021/12/07 00:57:16;;;;;;;14.20;7.82;;;;;;;-0.54;98.71;97777.41;4208256;27;20059;-71
2021/12/07 00:59:16;;;;;;;13.10;7.50;;;;;;;-0.59;97.64;97781.09;4206629;27;20244;-71
2021/12/07 01:01:19;;;;;;;14.30;7.70;;;;;;;-0.59;98.48;97779.16;4208463;27;20131;-71
2021/12/07 01:03:19;;;;;;;14.65;8.05;;;;;;;-0.63;98.39;97774.72;4208074;27;20440;-71
2021/12/07 01:05:27;;;;;;;12.90;7.22;;;;;;;-0.69;98.52;97776.78;4207253;27;20039;-71
2021/12/07 01:08:50;;;;;;;15.48;8.00;;;;;;;-0.61;99.24;97773.25;4210030;27;20440;-71
2021/12/07 01:26:15;;;;;;;12.95;7.05;;;;;;;-0.86;98.85;97726.00;4208236;27;20128;-71
2021/12/07 01:28:25;;;;;;;12.43;6.60;;;;;;;-0.94;98.83;97731.44;4208309;27;20347;-71
2021/12/07 01:31:09;;;;;;;12.43;6.82;;;;;;;-1.03;99.00;97726.03;4208264;27;20101;-71
2021/12/07 01:42:49;;;;;;;15.80;7.78;;;;;;;-1.31;100.00;97741.03;4210239;27;20052;-71
2021/12/07 01:46:41;;;;;;;14.65;7.38;;;;;;;-1.32;100.00;97723.97;4212303;27;20043;-71
2021/12/07 01:57:55;;;;;;;12.88;6.90;;;;;;;-1.34;100.00;97717.22;4210394;27;20055;-71
2021/12/07 01:59:56;;;;;;;15.65;7.97;;;;;;;-1.35;100.00;97705.59;4205601;27;20039;-71
2021/12/07 02:01:57;;;;;;;12.23;7.38;;;;;;;-1.31;100.00;97700.34;4206372;28;20044;-71
2021/12/07 02:03:57;;;;;;;13.63;8.25;;;;;;;-1.29;100.00;97701.59;4206394;27;20191;-71
2021/12/07 02:05:57;;;;;;;11.10;7.05;;;;;;;-1.28;100.00;97691.53;4208046;27;20092;-71
2021/12/07 02:07:58;;;;;;;15.35;8.35;;;;;;;-1.30;100.00;97700.00;4208023;27;20036;-71
2021/12/07 02:10:05;;;;;;;14.82;7.72;;;;;;;-1.30;100.00;97700.00;4206870;27;20050;-71
2021/12/07 02:12:06;;;;;;;14.77;8.07;;;;;;;-1.28;100.00;97699.69;4212486;27;20046;-71
2021/12/07 02:14:16;;;;;;;13.10;7.57;;;;;;;-1.20;100.00;97696.97;4209187;27;20968;-71
2021/12/07 02:16:18;;;;;;;15.48;8.15;;;;;;;-1.17;100.00;97692.81;4208216;27;20456;-71
2021/12/07 02:18:19;;;;;;;14.63;8.13;;;;;;;-1.14;100.00;97701.13;4207387;27;20141;-71
2021/12/07 02:20:21;;;;;;;12.32;7.57;;;;;;;-1.15;100.00;97691.38;4205294;27;20463;-71
2021/12/07 02:22:22;;;;;;;15.52;8.13;;;;;;;-1.11;100.00;97691.53;4207721;27;20040;-71
2021/12/07 02:24:22;;;;;;;13.65;7.63;;;;;;;-1.09;100.00;97700.16;4205973;27;20364;-71
2021/12/07 02:26:23;;;;;;;14.82;8.40;;;;;;;-1.04;100.00;97696.47;4207504;27;20404;-71
2021/12/07 02:28:23;;;;;;;13.60;8.38;;;;;;;-1.01;100.00;97687.69;4206063;27;20534;-71
2021/12/07 02:30:25;;;;;;;14.25;7.45;;;;;;;-0.98;100.00;97689.78;4204291;28;20166;-71
2021/12/07 02:32:26;;;;;;;12.45;7.28;;;;;;;-1.05;100.00;97698.41;4208947;27;20655;-71
2021/12/07 02:34:26;;;;;;;12.63;7.20;;;;;;;-1.08;100.00;97687.38;4204691;28;20040;-71
2021/12/07 02:36:27;;;;;;;14.02;8.10;;;;;;;-1.11;100.00;97686.09;4206357;28;20040;-71
2021/12/07 02:38:27;;;;;;;12.95;7.63;;;;;;;-1.09;100.00;97692.00;4212513;27;20043;-71
2021/12/07 02:40:28;;;;;;;13.95;7.63;;;;;;;-1.02;100.00;97683.38;4205857;28;20048;-71
2021/12/07 02:42:28;;;;;;;12.88;7.60;;;;;;;-0.89;100.00;97685.91;4205362;27;20043;-71
2021/12/07 02:44:28;;;;;;;11.73;7.05;;;;;;;-0.80;100.00;97671.53;4204552;28;20043;-71
2021/12/07 02:46:29;;;;;;;15.00;7.65;;;;;;;-0.69;99.22;97681.72;4209163;28;20040;-71
2021/12/07 02:48:29;;;;;;;10.65;6.82;;;;;;;-0.66;98.71;97686.50;4204056;28;20051;-71
2021/12/07 02:50:29;;;;;;;12.50;7.40;;;;;;;-0.65;97.92;97685.38;4205290;28;20078;-71
2021/12/07 02:52:30;;;;;;;13.00;7.32;;;;;;;-0.68;98.01;97686.00;4206919;27;20141;-71
2021/12/07 02:54:35;;;;;;;9.38;6.25;;;;;;;-0.65;98.41;97682.66;4204605;28;20411;-71
2021/12/07 02:56:36;;;;;;;10.18;7.07;;;;;;;-0.63;98.40;97696.72;4208370;27;20050;-71
2021/12/07 02:58:40;;;;;;;18.23;7.28;;;;;;;-0.68;98.27;97691.44;4211311;28;20068;-71
2021/12/07 03:00:48;;;;;;;11.88;6.95;;;;;;;-0.64;98.23;97692.41;4206380;28;20130;-71
2021/12/07 03:03:10;;;;;;;13.18;7.38;;;;;;;-0.61;98.37;97689.03;4205569;27;20201;-71
2021/12/07 03:07:45;;;;;;;;;;;;;;;-0.43;97.55;97689.78;4211598;27;20047;-71
2021/12/07 03:25:50;;;;;;;10.57;6.30;;;;;;;-0.41;96.56;97686.75;4206990;28;19942;-71
2021/12/07 03:26:22;;;;;;;13.88;7.43;;;;;;;-0.45;97.10;97683.88;4209481;27;20084;-71
2021/12/07 03:28:22;;;;;;;12.18;7.15;;;;;;;-0.44;96.56;97671.88;4205624;28;20422;-71
2021/12/07 03:30:23;;;;;;;12.13;7.22;;;;;;;-0.44;96.75;97666.44;4205833;28;20044;-71
2021/12/07 03:32:23;;;;;;;11.50;6.65;;;;;;;-0.39;97.17;97671.72;4205570;28;20044;-71
2021/12/07 03:34:23;;;;;;;10.65;7.03;;;;;;;-0.38;96.01;97670.59;4207230;28;20498;-71
2021/12/07 03:36:24;;;;;;;9.60;6.40;;;;;;;-0.36;95.84;97673.75;4204693;27;20040;-71
2021/12/07 03:38:25;;;;;;;9.98;6.20;;;;;;;-0.38;96.41;97677.94;4205615;28;20059;-71
2021/12/07 03:40:26;;;;;;;13.57;8.02;;;;;;;-0.43;96.74;97681.63;4206633;28;20388;-71
2021/12/07 03:42:26;;;;;;;10.85;6.60;;;;;;;-0.43;96.80;97681.63;4204359;28;20040;-71
2021/12/07 03:44:27;;;;;;;11.32;6.60;;;;;;;-0.44;97.07;97680.03;4205755;28;20300;-71
2021/12/07 03:46:27;;;;;;;10.25;6.32;;;;;;;-0.40;96.86;97672.84;4206947;27;20086;-71
2021/12/07 03:48:28;;;;;;;15.25;6.85;;;;;;;-0.37;96.80;97674.09;4208303;27;20074;-71
2021/12/07 03:50:28;;;;;;;12.45;7.00;;;;;;;-0.33;96.22;97666.91;4209356;27;20048;-71
2021/12/07 03:52:28;;;;;;;10.45;5.97;;;;;;;-0.33;96.15;97677.78;4210370;27;20267;-71
2021/12/07 03:54:29;;;;;;;11.77;6.53;;;;;;;-0.35;95.96;97675.34;4209559;27;20626;-71
2021/12/07 03:56:29;;;;;;;11.40;6.50;;;;;;;-0.32;96.10;97679.38;4207331;27;20427;-71
2021/12/07 03:58:31;;;;;;;10.60;6.70;;;;;;;-0.36;96.39;97673.75;4209851;27;20032;-71
2021/12/07 04:00:34;;;;;;;11.98;7.38;;;;;;;-0.36;96.31;97671.03;4209775;27;20048;-71
2021/12/07 04:02:39;;;;;;;9.98;5.93;;;;;;;-0.31;95.61;97681.75;4213303;27;20385;-71
2021/12/07 04:04:41;;;;;;;13.45;7.32;;;;;;;-0.29;95.29;97671.34;4212121;27;20118;-71
2021/12/07 04:06:42;;;;;;;10.70;6.65;;;;;;;-0.33;95.84;97677.78;4208662;27;20455;-71
2021/12/07 04:08:42;;;;;;;15.23;7.22;;;;;;;-0.33;95.89;97670.41;4208558;27;20058;-71
2021/12/07 04:10:43;;;;;;;12.52;6.82;;;;;;;-0.34;96.43;97673.44;4209583;27;20040;-71
2021/12/07 04:12:43;;;;;;;11.35;6.03;;;;;;;-0.35;96.34;97666.41;4213472;27;20760;-71
2021/12/07 04:14:44;;;;;;;9.55;5.60;;;;;;;-0.31;96.23;97667.38;4211181;27;20070;-71
2021/12/07 04:16:44;;;;;;;9.70;5.53;;;;;;;-0.30;95.70;97666.25;4211328;27;20498;-71
2021/12/07 04:18:45;;;;;;;10.40;5.72;;;;;;;-0.31;96.05;97657.28;4209307;27;20401;-72
2021/12/07 04:20:45;;;;;;;9.70;5.32;;;;;;;-0.29;96.26;97654.22;4206241;27;20529;-72
2021/12/07 04:22:46;;;;;;;8.80;5.57;;;;;;;-0.26;95.34;97656.28;4207059;27;20040;-72
2021/12/07 04:24:46;;;;;;;10.10;5.90;;;;;;;-0.29;94.83;97655.03;4215045;27;20044;-71
2021/12/07 04:26:47;;;;;;;9.15;5.75;;;;;;;-0.32;95.86;97660.34;4211748;27;20407;-71
2021/12/07 04:28:47;;;;;;;9.60;5.85;;;;;;;-0.33;96.20;97659.53;4209946;27;20032;-71
2021/12/07 04:30:48;;;;;;;8.27;5.22;;;;;;;-0.30;95.80;97658.09;4210276;27;20039;-71
2021/12/07 04:32:49;;;;;;;10.63;5.68;;;;;;;-0.34;95.46;97654.41;4212791;27;20522;-71
2021/12/07 04:34:49;;;;;;;7.72;4.50;;;;;;;-0.31;95.44;97643.69;4212232;27;20036;-71
2021/12/07 04:36:50;;;;;;;7.55;5.10;;;;;;;-0.31;94.97;97649.13;4213637;27;20044;-71
2021/12/07 04:38:50;;;;;;;9.25;5.65;;;;;;;-0.33;95.31;97642.44;4208722;28;20045;-71
2021/12/07 04:40:51;;;;;;;8.55;5.57;;;;;;;-0.36;95.34;97645.78;4214055;27;20470;-71
2021/12/07 04:42:52;;;;;;;8.10;4.72;;;;;;;-0.38;95.59;97642.59;4211951;27;20048;-72
2021/12/07 04:44:57;;;;;;;6.55;4.25;;;;;;;-0.41;96.21;97643.28;4212501;27;20047;-72
2021/12/07 04:57:45;;;;;;;7.75;5.00;;;;;;;-0.57;97.36;97637.56;4205917;28;20032;-71
2021/12/07 04:59:46;;;;;;;;;;;;;;;-0.58;97.42;97642.22;4210050;27;20036;-71
2021/12/07 05:01:48;;;;;;;7.15;4.13;;;;;;;-0.52;97.93;97645.53;4210557;27;19923;-71
2021/12/07 05:03:50;;;;;;;;;;;;;;;-0.52;97.99;97650.97;4209050;28;20039;-71
2021/12/07 05:05:53;;;;;;;6.05;3.97;;;;;;;-0.49;97.55;97644.91;4207324;27;20410;-71
2021/12/07 05:07:55;;;;;;;8.95;4.82;;;;;;;-0.52;97.19;97637.38;4208870;27;20059;-71
2021/12/07 05:14:18;;;;;;;8.77;4.93;;;;;;;-0.63;96.07;97642.38;4210279;27;20038;-71
2021/12/07 05:16:33;;;;;;;7.22;4.43;;;;;;;-0.61;96.43;97642.06;4208833;27;20020;-71
2021/12/07 05:34:40;;;;;;;5.40;3.45;;;;;;;-0.39;92.92;97649.97;4207375;27;20047;-71
2021/12/07 05:38:59;;;;;;;7.72;3.85;;;;;;;-0.39;95.24;97649.16;4210381;27;20046;-71
2021/12/07 05:41:00;;;;;;;5.40;3.47;;;;;;;-0.41;95.17;97648.72;4207314;27;20491;-71
2021/12/07 05:43:03;;;;;;;5.03;3.20;;;;;;;-0.37;95.66;97650.44;4209714;27;20757;-71
2021/12/07 05:45:09;;;;;;;6.80;3.95;;;;;;;-0.37;94.29;97653.16;4209512;27;20080;-71
2021/12/07 05:47:09;;;;;;;17.27;3.90;;;;;;;-0.41;93.62;97646.78;4206426;27;20036;-71
2021/12/07 05:49:09;;;;;;;6.10;3.40;;;;;;;-0.39;93.90;97657.31;4208491;27;20309;-71
2021/12/07 05:51:10;;;;;;;4.45;3.13;;;;;;;-0.39;94.91;97654.59;4209159;27;20184;-71
2021/12/07 05:53:12;;;;;;;5.90;3.90;;;;;;;-0.31;95.78;97659.22;4208315;27;20073;-71
2021/12/07 05:55:12;;;;;;;5.60;3.53;;;;;;;-0.31;95.45;97656.50;4208110;27;20515;-71
2021/12/07 05:57:13;;;;;;;5.00;3.38;;;;;;;-0.34;95.12;97657.13;4210201;27;20044;-72
2021/12/07 05:59:14;;;;;;;5.97;3.55;;;;;;;-0.35;94.54;97659.03;4209860;27;20051;-72
2021/12/07 06:01:14;;;;;;;5.95;4.50;;;;;;;-0.38;94.23;97667.88;4208737;27;20162;-72
2021/12/07 06:03:15;;;;;;;5.43;3.60;;;;;;;-0.39;94.56;97665.47;4207476;27;20105;-71
2021/12/07 06:05:15;;;;;;;4.88;3.45;;;;;;;-0.39;95.13;97673.63;4211822;27;20529;-71
2021/12/07 06:07:16;;;;;;;4.80;3.38;;;;;;;-0.32;95.30;97672.00;4211453;27;20162;-71
2021/12/07 06:09:16;;;;;;;6.45;3.28;;;;;;;-0.30;93.85;97683.34;4205138;27;20044;-71
2021/12/07 06:11:18;;;;;;;4.30;2.85;;;;;;;-0.29;93.71;97675.97;4209265;27;20058;-71
2021/12/07 06:13:18;;;;;;;4.40;3.15;;;;;;;-0.29;94.91;97684.94;4206581;28;20476;-71
2021/12/07 06:15:22;;;;;;;5.05;3.42;;;;;;;-0.28;95.32;97677.56;4203678;28;20059;-71
2021/12/07 06:17:23;;;;;;;7.57;4.60;;;;;;;-0.29;94.85;97687.66;4211708;27;20048;-71
2021/12/07 06:19:23;;;;;;;10.68;5.60;;;;;;;-0.26;94.36;97688.13;4205479;27;20159;-71
2021/12/07 06:21:25;;;;;;;8.32;5.38;;;;;;;-0.27;93.77;97690.03;4206089;27;20040;-71
2021/12/07 06:23:26;;;;;;;9.23;5.60;;;;;;;-0.22;94.30;97692.59;4210051;27;20427;-71
2021/12/07 06:25:28;;;;;;;12.48;7.15;;;;;;;-0.17;93.66;97700.53;4206251;27;20435;-71
2021/12/07 06:27:28;;;;;;;25.05;16.10;;;;;;;-0.14;93.89;97697.19;4207896;28;20040;-71
2021/12/07 06:29:28;;;;;;;29.42;14.38;;;;;;;-0.16;93.83;97707.59;4208512;27;20510;-72
2021/12/07 06:31:29;;;;;;;41.65;23.95;;;;;;;-0.17;93.64;97703.25;4205332;28;20483;-72
2021/12/07 06:33:30;;;;;;;41.88;23.58;;;;;;;-0.23;93.68;97706.50;4204861;28;20127;-72
2021/12/07 06:35:30;;;;;;;34.10;19.00;;;;;;;-0.26;94.28;97705.22;4206827;28;20563;-72
2021/12/07 06:37:30;;;;;;;19.98;11.93;;;;;;;-0.27;94.03;97714.50;4204781;28;20543;-72
2021/12/07 06:39:31;;;;;;;27.63;15.48;;;;;;;-0.28;94.77;97713.72;4206489;27;20480;-72
2021/12/07 06:41:32;;;;;;;28.70;17.27;;;;;;;-0.29;95.04;97714.84;4205546;27;20040;-72
2021/12/07 06:43:33;;;;;;;25.35;15.10;;;;;;;-0.32;95.04;97726.38;4205630;27;20370;-72
2021/12/07 06:45:33;;;;;;;23.88;14.93;;;;;;;-0.33;95.57;97723.97;4206977;28;20039;-72
2021/12/07 06:47:34;;;;;;;19.50;11.70;;;;;;;-0.35;95.66;97726.19;4204549;28;20104;-72
2021/12/07 06:49:34;;;;;;;21.95;13.82;;;;;;;-0.35;95.64;97723.47;4205831;28;20048;-72
2021/12/07 06:51:35;;;;;;;21.38;12.40;;;;;;;-0.38;95.93;97724.94;4206167;28;20380;-72
2021/12/07 06:53:36;;;;;;;21.73;13.30;;;;;;;-0.37;96.35;97725.75;4206022;28;20399;-72
2021/12/07 06:55:37;;;;;;;19.35;11.38;;;;;;;-0.35;96.22;97726.19;4205324;27;20105;-72
2021/12/07 06:57:37;;;;;;;19.63;11.75;;;;;;;-0.36;96.14;97736.28;4206864;28;20056;-72
2021/12/07 06:59:38;;;;;;;18.10;11.18;;;;;;;-0.39;96.60;97731.50;4206643;28;20206;-72
2021/12/07 07:01:38;;;;;;;17.27;10.30;;;;;;;-0.37;96.73;97742.84;4204369;28;20063;-72
2021/12/07 07:03:39;;;;;;;16.60;9.73;;;;;;;-0.37;96.57;97742.03;4208311;28;20043;-71
2021/12/07 07:05:39;;;;;;;16.48;9.80;;;;;;;-0.36;96.77;97744.44;4210762;28;20063;-72
2021/12/07 07:07:41;;;;;;;14.95;9.45;;;;;;;-0.36;96.99;97752.59;4209253;28;20047;-72
2021/12/07 07:09:41;;;;;;;15.82;9.70;;;;;;;-0.39;96.52;97755.97;4203816;28;20052;-72
2021/12/07 07:11:42;;;;;;;15.57;9.10;;;;;;;-0.39;96.83;97761.41;4206658;28;20132;-72
2021/12/07 07:13:42;;;;;;;13.57;8.27;;;;;;;-0.39;96.92;97776.91;4205982;28;20036;-72
2021/12/07 07:15:43;;;;;;;15.40;8.60;;;;;;;-0.39;96.85;97774.19;4203732;28;20318;-72
2021/12/07 07:17:44;;;;;;;13.02;8.27;;;;;;;-0.41;96.90;97779.97;4207101;27;20068;-72
2021/12/07 07:19:44;;;;;;;11.98;8.55;;;;;;;-0.43;96.83;97771.31;4204046;28;20043;-72
2021/12/07 07:21:45;;;;;;;14.15;7.78;;;;;;;-0.43;96.94;97776.75;4206331;27;20534;-72
2021/12/07 07:23:45;;;;;;;13.32;7.97;;;;;;;-0.43;97.42;97781.38;4210822;27;20066;-72
2021/12/07 07:25:46;;;;;;;17.38;9.13;;;;;;;-0.45;97.10;97781.72;4208537;27;20044;-72
2021/12/07 07:27:47;;;;;;;15.95;9.43;;;;;;;-0.46;97.18;97780.13;4208900;27;20051;-72
2021/12/07 07:29:47;;;;;;;16.92;10.10;;;;;;;-0.46;97.45;97790.19;4208504;27;20481;-72
2021/12/07 07:31:47;;;;;;;17.85;9.60;;;;;;;-0.45;97.64;97797.22;4212492;27;20051;-72
2021/12/07 07:33:48;;;;;;;15.32;8.85;;;;;;;-0.46;97.18;97801.06;4208371;27;20043;-72
2021/12/07 07:35:48;;;;;;;16.02;8.80;;;;;;;-0.47;97.38;97799.47;4207838;27;20032;-72
2021/12/07 07:37:49;;;;;;;12.00;7.43;;;;;;;-0.49;97.74;97805.22;4209787;27;20135;-72
2021/12/07 07:39:49;;;;;;;10.23;6.90;;;;;;;-0.46;97.59;97811.94;4207779;27;20042;-72
2021/12/07 07:41:50;;;;;;;11.63;6.85;;;;;;;-0.45;97.88;97813.53;4210570;27;20074;-72
2021/12/07 07:43:50;;;;;;;10.55;6.93;;;;;;;-0.45;97.87;97808.88;4208580;27;20311;-72
2021/12/07 07:45:52;;;;;;;9.93;6.35;;;;;;;-0.47;97.52;97813.06;4208861;27;20105;-72
2021/12/07 07:47:54;;;;;;;9.90;6.13;;;;;;;-0.44;97.61;97821.34;4209637;27;20039;-72
2021/12/07 07:49:54;;;;;;;9.50;5.90;;;;;;;-0.45;97.62;97819.75;4206886;27;20738;-72
2021/12/07 07:51:55;;;;;;;9.07;5.18;;;;;;;-0.47;97.69;97813.84;4212114;27;20067;-72
2021/12/07 07:53:56;;;;;;;9.93;5.40;;;;;;;-0.46;97.91;97818.16;4207464;27;20028;-72
2021/12/07 07:55:57;;;;;;;28.80;17.08;;;;;;;-0.40;98.07;97813.38;4209376;27;20059;-72
2021/12/07 07:57:57;;;;;;;13.98;8.73;;;;;;;-0.37;97.69;97824.38;4207828;27;20777;-72
2021/12/07 07:59:58;;;;;;;13.18;8.60;;;;;;;-0.40;98.05;97829.69;4207963;27;20040;-72
2021/12/07 08:01:58;;;;;;;11.05;6.18;;;;;;;-0.36;98.18;97831.41;4210047;27;20039;-72
2021/12/07 08:04:00;;;;;;;9.60;6.18;;;;;;;-0.36;98.34;97833.34;4207119;27;20325;-72
2021/12/07 08:06:01;;;;;;;9.55;6.82;;;;;;;-0.35;98.01;97833.00;4211718;27;20138;-72
2021/12/07 08:08:02;;;;;;;8.75;5.15;;;;;;;-0.33;98.46;97840.88;4206920;27;20057;-72
2021/12/07 08:10:05;;;;;;;11.23;6.38;;;;;;;-0.32;98.37;97834.31;4209537;27;20069;-72
2021/12/07 08:12:06;;;;;;;9.45;5.05;;;;;;;-0.33;98.08;97838.16;4209121;27;20189;-73
2021/12/07 08:14:06;;;;;;;9.57;5.70;;;;;;;-0.35;97.69;97841.16;4207887;27;20051;-72
2021/12/07 08:16:15;;;;;;;9.30;5.90;;;;;;;-0.34;97.81;97847.41;4206933;27;20032;-72
2021/12/07 08:18:15;;;;;;;10.77;5.70;;;;;;;-0.31;97.70;97846.78;4209673;27;20464;-72
2021/12/07 08:20:16;;;;;;;7.72;5.55;;;;;;;-0.30;97.62;97846.44;4208108;27;20035;-72
2021/12/07 08:22:16;;;;;;;9.45;5.38;;;;;;;-0.27;97.60;97853.16;4206757;27;20102;-72
2021/12/07 08:24:17;;;;;;;8.30;5.35;;;;;;;-0.28;97.77;97848.84;4208961;27;20028;-72
2021/12/07 08:26:20;;;;;;;8.70;5.93;;;;;;;-0.25;97.88;97841.94;4208795;27;20032;-72
2021/12/07 08:28:20;;;;;;;8.85;5.75;;;;;;;-0.22;97.63;97855.72;4214555;27;20103;-72
2021/12/07 08:30:21;;;;;;;10.20;6.05;;;;;;;-0.19;97.95;97863.22;4207801;27;20194;-72
2021/12/07 08:32:21;;;;;;;8.82;5.00;;;;;;;-0.18;98.10;97864.81;4208774;27;20177;-72
2021/12/07 08:34:21;;;;;;;16.13;7.18;;;;;;;-0.17;97.93;97871.03;4207214;27;20118;-72
2021/12/07 08:36:22;;;;;;;19.90;12.35;;;;;;;-0.14;97.80;97865.78;4207705;27;20047;-72
2021/12/07 08:38:22;;;;;;;19.85;11.70;;;;;;;-0.13;97.92;97872.00;4208880;27;20036;-72
2021/12/07 08:40:25;;;;;;;16.08;10.30;;;;;;;-0.12;97.95;97870.88;4207065;27;20086;-72
2021/12/07 08:42:25;;;;;;;14.93;9.30;;;;;;;-0.13;97.91;97874.72;4206148;27;20067;-72
2021/12/07 08:44:26;;;;;;;17.08;8.93;;;;;;;-0.05;97.85;97866.53;4207759;27;20139;-72
2021/12/07 08:46:26;;;;;;;17.20;9.43;;;;;;;-0.07;98.00;97874.25;4207779;27;20078;-72
2021/12/07 08:48:27;;;;;;;16.83;8.77;;;;;;;-0.08;97.66;97883.53;4212910;27;20451;-72
2021/12/07 08:50:29;;;;;;;7.95;5.72;;;;;;;0.02;98.07;97881.59;4206834;27;20044;-72
2021/12/07 08:52:29;;;;;;;10.52;5.97;;;;;;;0.02;98.09;97885.09;4208550;27;20115;-72
2021/12/07 09:01:29;;;;;;;12.05;6.53;;;;;;;0.07;97.84;97887.63;4208426;27;20085;-72
2021/12/07 09:03:29;;;;;;;11.32;6.72;;;;;;;0.10;98.06;97897.88;4207923;27;20521;-72
2021/12/07 09:05:30;;;;;;;10.43;5.90;;;;;;;0.11;98.09;97904.13;4205584;27;20443;-72
2021/12/07 09:07:30;;;;;;;8.52;5.40;;;;;;;0.12;98.46;97903.00;4208780;27;20047;-72
2021/12/07 09:09:32;;;;;;;12.52;6.90;;;;;;;0.11;98.61;97901.41;4207411;27;20364;-72
2021/12/07 09:11:32;;;;;;;10.55;6.03;;;;;;;0.13;98.85;97904.59;4207460;27;20048;-72
2021/12/07 09:13:34;;;;;;;10.02;5.90;;;;;;;0.12;98.96;97901.06;4206636;27;20360;-72
2021/12/07 09:15:34;;;;;;;10.55;6.05;;;;;;;0.12;98.72;97911.16;4207433;27;20465;-72
2021/12/07 09:17:35;;;;;;;14.15;7.03;;;;;;;0.11;98.67;97904.13;4206870;27;20426;-73
2021/12/07 09:19:36;;;;;;;12.50;7.70;;;;;;;0.12;99.41;97911.94;4209476;27;20531;-72
2021/12/07 09:21:37;;;;;;;10.48;7.30;;;;;;;0.16;99.38;97917.53;4208052;27;20078;-72
2021/12/07 09:23:38;;;;;;;13.52;7.60;;;;;;;0.16;99.23;97912.88;4206434;27;20496;-72
2021/12/07 09:25:38;;;;;;;14.70;8.73;;;;;;;0.17;99.49;97916.44;4209028;27;20497;-72
2021/12/07 09:27:39;;;;;;;16.90;9.23;;;;;;;0.17;99.29;97919.94;4205613;27;20097;-72
2021/12/07 09:29:39;;;;;;;10.40;7.20;;;;;;;0.23;99.49;97928.72;4206834;27;20075;-72
2021/12/07 09:31:41;;;;;;;14.93;7.45;;;;;;;0.32;99.45;97937.66;4205654;27;20447;-72
2021/12/07 09:33:42;;;;;;;24.13;8.47;;;;;;;0.37;98.89;97933.97;4206456;27;20485;-73
2021/12/07 09:35:43;;;;;;;11.77;6.32;;;;;;;0.37;98.56;97928.53;4206978;27;20044;-72
2021/12/07 09:37:43;;;;;;;17.80;8.98;;;;;;;0.37;98.77;97920.38;4206226;27;20071;-72
2021/12/07 09:39:43;;;;;;;15.35;7.63;;;;;;;0.36;98.75;97925.03;4207121;27;20067;-72
2021/12/07 09:41:45;;;;;;;7.88;4.78;;;;;;;0.45;98.81;97925.00;4206893;27;20074;-72
2021/12/07 09:43:46;;;;;;;9.00;4.75;;;;;;;0.51;98.09;97926.44;4206970;27;20079;-72
2021/12/07 09:45:47;;;;;;;12.13;7.10;;;;;;;0.52;97.96;97923.38;4208907;27;20040;-72
2021/12/07 09:47:48;;;;;;;6.18;3.65;;;;;;;0.61;97.22;97931.50;4205861;27;20063;-72
2021/12/07 09:49:49;;;;;;;8.90;5.32;;;;;;;0.57;97.87;97930.53;4207925;27;20040;-72
2021/12/07 09:51:49;;;;;;;12.27;5.50;;;;;;;0.60;97.25;97934.56;4205570;28;20454;-72
2021/12/07 09:53:52;;;;;;;12.38;6.82;;;;;;;0.56;97.80;97926.22;4206892;27;20687;-72
2021/12/07 09:55:53;;;;;;;8.27;6.22;;;;;;;0.57;98.01;97938.72;4212549;27;20052;-72
2021/12/07 09:57:53;;;;;;;7.45;5.00;;;;;;;0.54;97.89;97933.94;4206832;27;20070;-72
2021/12/07 09:59:53;;;;;;;7.22;4.80;;;;;;;0.58;98.03;97943.06;4204839;27;20380;-72
2021/12/07 10:01:54;;;;;;;7.07;5.00;;;;;;;0.57;97.30;97938.72;4208110;27;20237;-72
2021/12/07 10:03:54;;;;;;;6.80;4.65;;;;;;;0.68;97.21;97944.63;4207470;27;20044;-72
2021/12/07 10:05:55;;;;;;;6.85;4.75;;;;;;;0.68;96.58;97944.63;4204529;27;20040;-72
2021/12/07 10:07:55;;;;;;;7.72;5.68;;;;;;;0.68;96.63;97948.13;4219021;27;20540;-72
2021/12/07 10:09:55;;;;;;;7.22;5.35;;;;;;;0.69;97.36;97954.38;4211838;27;20044;-72
2021/12/07 10:11:56;;;;;;;8.10;5.55;;;;;;;0.67;97.26;97949.28;4205179;28;20040;-72
2021/12/07 10:13:57;;;;;;;7.75;5.82;;;;;;;0.69;97.56;97952.47;4207789;27;20039;-72
2021/12/07 10:16:00;;;;;;;5.88;4.80;;;;;;;0.77;96.91;97956.28;4205903;28;20490;-72
2021/12/07 10:18:11;;;;;;;7.63;5.40;;;;;;;0.78;96.80;97960.59;4205973;27;20048;-72
2021/12/07 10:20:31;;;;;;;6.10;4.68;;;;;;;0.77;97.06;97964.44;4206297;28;20032;-72
2021/12/07 10:22:35;;;;;;;6.50;4.60;;;;;;;0.77;96.76;97959.00;4206255;27;20153;-72
2021/12/07 10:24:45;;;;;;;6.50;4.82;;;;;;;0.76;96.59;97957.41;4212801;27;20083;-72
2021/12/07 10:26:47;;;;;;;8.95;5.35;;;;;;;0.78;97.01;97958.66;4218630;27;20056;-72
2021/12/07 10:28:52;;;;;;;8.27;5.18;;;;;;;0.75;97.17;97951.16;4206977;27;20469;-72
2021/12/07 10:30:53;;;;;;;7.78;4.88;;;;;;;0.76;96.78;97957.41;4205077;27;20386;-72
2021/12/07 10:33:01;;;;;;;10.95;5.50;;;;;;;0.77;96.71;97961.72;4207610;27;20032;-72
2021/12/07 10:35:02;;;;;;;5.95;4.28;;;;;;;0.77;96.69;97964.44;4206006;28;20114;-72
2021/12/07 10:37:02;;;;;;;6.55;3.80;;;;;;;0.88;95.14;97968.41;4211894;27;20036;-72
2021/12/07 10:39:08;;;;;;;5.30;3.97;;;;;;;0.96;94.74;97967.56;4206317;27;20066;-72
2021/12/07 10:41:11;;;;;;;4.47;3.67;;;;;;;0.96;94.09;97951.22;4206318;27;20054;-72
2021/12/07 10:43:12;;;;;;;6.18;4.65;;;;;;;0.93;94.55;97954.59;4204455;27;20040;-72
2021/12/07 10:45:13;;;;;;;5.43;3.55;;;;;;;0.93;94.42;97951.88;4212946;27;20090;-72
2021/12/07 10:47:18;;;;;;;8.02;5.10;;;;;;;0.94;94.63;97950.75;4206424;28;20104;-72
2021/12/07 10:49:30;;;;;;;5.80;4.35;;;;;;;0.89;94.83;97948.19;4204027;28;20507;-72
2021/12/07 10:51:30;;;;;;;12.23;6.88;;;;;;;0.87;95.39;97953.19;4205507;28;20052;-72
2021/12/07 10:53:36;;;;;;;7.93;4.97;;;;;;;0.84;95.86;97946.47;4206901;28;20104;-72
2021/12/07 10:55:40;;;;;;;7.85;4.28;;;;;;;0.88;95.74;97943.09;4211552;27;20224;-72
2021/12/07 10:57:48;;;;;;;7.45;4.80;;;;;;;0.86;95.82;97951.59;4210971;27;20071;-72
2021/12/07 11:00:00;;;;;;;7.00;4.70;;;;;;;0.97;95.08;97950.09;4209049;27;20432;-72
2021/12/07 11:02:12;;;;;;;6.03;4.28;;;;;;;0.99;95.45;97947.03;4215626;27;20043;-72
2021/12/07 11:04:22;;;;;;;10.52;6.28;;;;;;;0.94;96.42;97948.03;4208057;27;20048;-72
2021/12/07 11:06:23;;;;;;;9.43;5.15;;;;;;;0.94;96.90;97952.69;4207338;27;20119;-72